Portada
METAR-TAF:

METAR-TAF

Aeroports :

Ramsar, Iran

latitud: 36-54N, longitud: 050-40E, altitud: -23 m

Observació

L'informe es va fer fa 31 minuts, a les 16:00 UTC
Vent 4 kt del Oest
Temperatura 22°C
Humitat 65%
Pressió 1023 hPa
Visibilitat 10 km o més
Escasses núvols a una alçada de 2200 ft, Cumulonimbus.
Núvols disperses a una alçada de 2500 ft
Cel ennuvolat a una alçada de 8000 ft

METAR: OINR 281600Z 27004KT 9999 FEW022CB SCT025 BKN080 22/15 Q1023

Hora: 20:01 (16:31 UTC)


TAF: manca

Observacions i pronòstics meteorològics de més de 4000 aeroports (METAR i TAF).

Les estacions disponibles són els punts grocs i vermells al mapa.

Posi el ratolí al punt desitjat per veure el nom de l'estació.

Feu clic per veure les observacions i els pronòstics meteorològics.

Per canviar el mapa: feu clic els botons verds amb una creu de color negre per apropar; al botó verd amb un guió per allunyar la imatge; o en les fletxes verdes per a mapes adjacents.


METAR-TAF: